Time;durP1;ratioP1;P1;durP2;ratioP2;P2;SDS_P1;SDS_P2;PMS_P1;PMS_P2;Temp;Humidity;BMP_temperature;BMP_pressure;BME280_temperature;BME280_humidity;BME280_pressure;Samples;Min_cycle;Max_cycle;Signal;HPM_P1;HPM_P2
2021/08/02 00:00:20;;;;;;;;;;;;;;;14.01;91.41;99671.22;5133678;27;19923;-75
2021/08/02 00:02:55;;;;;;;;;;;;;;;14.12;90.30;99677.16;5133275;27;19931;-74
2021/08/02 00:05:22;;;;;;;;;;;;;;;13.97;91.10;99675.88;5133608;27;19923;-74
2021/08/02 00:07:52;;;;;;;;;;;;;;;13.98;90.83;99671.50;5133239;27;20434;-75
2021/08/02 00:10:19;;;;;;;;;;;;;;;13.99;90.49;99668.75;5133831;27;19930;-74
2021/08/02 00:12:47;;;;;;;;;;;;;;;14.10;88.98;99665.19;5133042;28;19923;-74
2021/08/02 00:15:14;;;;;;;;;;;;;;;13.91;89.82;99676.41;5133422;28;20313;-74
2021/08/02 00:17:43;;;;;;;;;;;;;;;13.89;89.85;99679.16;5133349;28;19930;-74
2021/08/02 00:20:12;;;;;;;;;;;;;;;13.99;89.07;99678.38;5133682;28;19946;-75
2021/08/02 00:22:39;;;;;;;;;;;;;;;14.05;88.24;99680.44;5133273;28;19930;-75
2021/08/02 00:25:06;;;;;;;;;;;;;;;14.07;88.42;99678.53;5133456;28;20031;-74
2021/08/02 00:27:33;;;;;;;;;;;;;;;13.96;88.89;99682.09;5133628;28;19930;-75
2021/08/02 00:30:00;;;;;;;;;;;;;;;13.57;90.67;99692.38;5132973;28;20401;-75
2021/08/02 00:32:26;;;;;;;;;;;;;;;13.44;91.00;99692.56;5136482;27;19930;-75
2021/08/02 00:34:54;;;;;;;;;;;;;;;13.31;93.01;99698.94;5137164;27;19928;-75
2021/08/02 00:37:26;;;;;;;;;;;;;;;13.55;90.81;99698.69;5137325;27;20381;-74
2021/08/02 00:39:54;;;;;;;;;;;;;;;13.40;91.78;99699.00;5137124;27;20370;-74
2021/08/02 00:42:46;;;;;;;;;;;;;;;13.37;91.60;99696.66;5137204;27;19923;-74
2021/08/02 00:45:14;;;;;;;;;;;;;;;13.46;90.96;99701.13;5137179;27;19924;-74
2021/08/02 00:47:45;;;;;;;;;;;;;;;13.51;90.91;99698.09;5137493;27;19959;-74
2021/08/02 00:50:14;;;;;;;;;;;;;;;13.66;89.31;99709.88;5137081;27;20393;-74
2021/08/02 00:52:43;;;;;;;;;;;;;;;13.60;91.28;99706.97;5137238;27;19923;-74
2021/08/02 00:55:10;;;;;;;;;;;;;;;13.67;89.66;99701.09;5137365;27;19968;-74
2021/08/02 00:57:38;;;;;;;;;;;;;;;13.84;88.10;99702.25;5136980;27;20280;-74
2021/08/02 01:00:06;;;;;;;;;;;;;;;13.78;88.63;99701.97;5137020;27;19927;-75
2021/08/02 01:02:37;;;;;;;;;;;;;;;13.76;88.11;99701.25;5136945;27;19923;-73
2021/08/02 01:05:03;;;;;;;;;;;;;;;13.80;87.39;99713.13;5136861;27;20007;-75
2021/08/02 01:07:32;;;;;;;;;;;;;;;13.65;87.92;99700.38;5136774;27;19924;-75
2021/08/02 01:09:59;;;;;;;;;;;;;;;13.56;88.69;99705.56;5136818;27;19924;-74
2021/08/02 01:12:26;;;;;;;;;;;;;;;13.59;88.24;99706.13;5136930;27;20026;-75
2021/08/02 01:14:54;;;;;;;;;;;;;;;13.54;88.52;99700.47;5136335;27;20385;-75
2021/08/02 01:17:21;;;;;;;;;;;;;;;13.41;89.29;99697.22;5136942;27;20019;-75
2021/08/02 01:19:49;;;;;;;;;;;;;;;13.41;89.03;99692.84;5136603;27;19931;-75
2021/08/02 01:22:18;;;;;;;;;;;;;;;13.41;88.77;99705.91;5136525;27;20376;-75
2021/08/02 01:24:44;;;;;;;;;;;;;;;13.22;90.22;99709.16;5136456;27;20399;-74
2021/08/02 01:27:29;;;;;;;;;;;;;;;13.14;90.76;99697.69;5136724;27;19924;-74
2021/08/02 01:30:14;;;;;;;;;;;;;;;13.06;91.09;99700.94;5136398;27;19972;-74
2021/08/02 01:32:41;;;;;;;;;;;;;;;13.04;90.60;99710.69;5136181;27;19931;-74
2021/08/02 01:35:09;;;;;;;;;;;;;;;13.04;90.75;99716.72;5136049;27;19924;-74
2021/08/02 01:37:37;;;;;;;;;;;;;;;12.96;91.31;99723.53;5136203;27;19923;-74
2021/08/02 01:40:05;;;;;;;;;;;;;;;12.92;91.99;99716.88;5136248;27;19980;-74
2021/08/02 01:42:31;;;;;;;;;;;;;;;13.00;91.34;99720.56;5135961;27;19924;-74
2021/08/02 01:44:58;;;;;;;;;;;;;;;12.88;91.73;99718.09;5135487;27;19923;-75
2021/08/02 01:47:30;;;;;;;;;;;;;;;12.99;90.83;99721.50;5135979;27;20372;-74
2021/08/02 01:49:59;;;;;;;;;;;;;;;13.14;90.35;99716.78;5136069;27;19924;-74
2021/08/02 01:52:27;;;;;;;;;;;;;;;13.10;91.15;99722.41;5136070;27;19923;-75
2021/08/02 01:54:57;;;;;;;;;;;;;;;13.13;90.23;99720.38;5135866;27;19927;-74
2021/08/02 01:57:26;;;;;;;;;;;;;;;13.24;90.03;99727.31;5136468;27;19935;-74
2021/08/02 01:59:57;;;;;;;;;;;;;;;13.31;89.66;99735.50;5135859;27;19923;-74
2021/08/02 02:02:25;;;;;;;;;;;;;;;13.24;90.15;99738.59;5135716;27;20090;-75
2021/08/02 02:04:55;;;;;;;;;;;;;;;13.21;89.91;99744.06;5135326;27;19930;-74
2021/08/02 02:07:22;;;;;;;;;;;;;;;13.05;90.88;99744.50;5135520;27;19930;-75
2021/08/02 02:09:50;;;;;;;;;;;;;;;13.19;90.59;99748.59;5135683;27;19930;-75
2021/08/02 02:12:19;;;;;;;;;;;;;;;13.32;89.58;99750.25;5135701;27;19931;-74
2021/08/02 02:14:45;;;;;;;;;;;;;;;13.16;89.91;99748.84;5135582;27;19931;-75
2021/08/02 02:17:12;;;;;;;;;;;;;;;13.00;91.44;99754.50;5135464;27;19923;-75
2021/08/02 02:19:39;;;;;;;;;;;;;;;12.92;91.19;99756.06;5135424;27;19924;-75
2021/08/02 02:22:06;;;;;;;;;;;;;;;12.80;92.61;99750.88;5135330;27;19924;-75
2021/08/02 02:24:36;;;;;;;;;;;;;;;13.01;91.75;99757.94;5135291;27;19930;-74
2021/08/02 02:27:03;;;;;;;;;;;;;;;12.86;92.44;99760.00;5135495;27;19923;-74
2021/08/02 02:29:32;;;;;;;;;;;;;;;12.76;93.33;99761.69;5135560;27;19930;-74
2021/08/02 02:32:00;;;;;;;;;;;;;;;12.83;93.42;99773.28;5134910;27;19923;-74
2021/08/02 02:34:26;;;;;;;;;;;;;;;12.75;93.51;99770.47;5135249;27;19947;-74
2021/08/02 02:36:54;;;;;;;;;;;;;;;12.85;92.78;99768.78;5134722;27;19923;-74
2021/08/02 02:39:20;;;;;;;;;;;;;;;12.90;92.46;99760.59;5135045;27;20004;-74
2021/08/02 02:41:48;;;;;;;;;;;;;;;12.92;92.02;99772.56;5134676;27;19923;-74
2021/08/02 02:44:15;;;;;;;;;;;;;;;12.93;92.45;99783.84;5134903;27;19923;-74
2021/08/02 02:46:44;;;;;;;;;;;;;;;12.85;92.89;99780.06;5134607;27;19975;-74
2021/08/02 02:49:10;;;;;;;;;;;;;;;12.78;93.08;99778.88;5135125;27;19930;-74
2021/08/02 02:51:38;;;;;;;;;;;;;;;12.82;92.53;99785.53;5135080;27;20008;-74
2021/08/02 02:54:05;;;;;;;;;;;;;;;12.81;92.60;99781.22;5134496;27;20476;-74
2021/08/02 02:56:33;;;;;;;;;;;;;;;12.78;93.04;99785.88;5133870;27;20404;-75
2021/08/02 02:59:00;;;;;;;;;;;;;;;12.76;93.60;99782.56;5134624;27;19930;-74
2021/08/02 03:01:29;;;;;;;;;;;;;;;12.77;93.19;99789.44;5134888;27;19923;-74
2021/08/02 03:03:59;;;;;;;;;;;;;;;12.74;93.28;99792.28;5134086;27;19924;-74
2021/08/02 03:06:27;;;;;;;;;;;;;;;12.71;93.67;99782.91;5134677;27;19923;-74
2021/08/02 03:08:54;;;;;;;;;;;;;;;12.75;93.42;99784.34;5134431;27;19966;-74
2021/08/02 03:11:21;;;;;;;;;;;;;;;12.67;93.46;99784.13;5134404;27;20397;-74
2021/08/02 03:13:50;;;;;;;;;;;;;;;12.84;92.67;99790.59;5134058;27;19923;-74
2021/08/02 03:16:16;;;;;;;;;;;;;;;12.77;93.06;99792.06;5134279;27;19923;-74
2021/08/02 03:18:43;;;;;;;;;;;;;;;12.75;93.05;99793.97;5134473;27;19924;-74
2021/08/02 03:21:13;;;;;;;;;;;;;;;12.77;92.44;99792.06;5134113;27;19924;-74
2021/08/02 03:23:44;;;;;;;;;;;;;;;12.78;93.57;99802.38;5134194;27;19923;-74
2021/08/02 03:26:12;;;;;;;;;;;;;;;12.87;93.00;99798.22;5134156;27;19923;-74
2021/08/02 03:28:43;;;;;;;;;;;;;;;12.85;92.71;99800.09;5134335;27;20285;-74
2021/08/02 03:31:11;;;;;;;;;;;;;;;12.96;92.69;99801.84;5134324;27;20018;-74
2021/08/02 03:33:38;;;;;;;;;;;;;;;13.12;90.56;99804.88;5133968;27;20289;-74
2021/08/02 03:36:07;;;;;;;;;;;;;;;13.14;89.81;99815.22;5133686;27;19939;-74
2021/08/02 03:38:36;;;;;;;;;;;;;;;13.17;88.75;99820.19;5133824;27;19930;-74
2021/08/02 03:41:05;;;;;;;;;;;;;;;13.11;88.82;99820.69;5133870;27;19923;-74
2021/08/02 03:43:32;;;;;;;;;;;;;;;13.00;89.22;99825.00;5134154;27;19923;-74
2021/08/02 03:45:59;;;;;;;;;;;;;;;12.80;90.31;99826.56;5133688;27;19924;-74
2021/08/02 03:48:25;;;;;;;;;;;;;;;12.89;89.67;99822.38;5133786;27;20381;-74
2021/08/02 03:50:52;;;;;;;;;;;;;;;12.78;90.09;99831.06;5133406;27;19930;-75
2021/08/02 03:53:19;;;;;;;;;;;;;;;12.77;90.37;99836.44;5133902;27;19923;-74
2021/08/02 03:55:47;;;;;;;;;;;;;;;12.60;90.89;99842.97;5133393;27;19927;-75
2021/08/02 03:58:13;;;;;;;;;;;;;;;12.70;90.56;99851.72;5133486;27;20404;-74
2021/08/02 04:00:40;;;;;;;;;;;;;;;12.64;90.88;99847.00;5133579;27;19923;-74
2021/08/02 04:03:07;;;;;;;;;;;;;;;12.74;91.08;99850.56;5133402;27;19924;-73
2021/08/02 04:05:34;;;;;;;;;;;;;;;12.79;90.82;99858.84;5133437;27;19930;-72
2021/08/02 04:08:00;;;;;;;;;;;;;;;13.00;90.20;99860.72;5133393;27;19923;-74
2021/08/02 04:10:27;;;;;;;;;;;;;;;13.11;89.06;99865.09;5133265;27;19923;-74
2021/08/02 04:12:56;;;;;;;;;;;;;;;13.28;89.22;99864.56;5133084;28;19930;-75
2021/08/02 04:15:22;;;;;;;;;;;;;;;13.46;87.92;99865.72;5133402;28;19924;-74
2021/08/02 04:17:49;;;;;;;;;;;;;;;13.41;88.44;99874.88;5133173;28;20365;-74
2021/08/02 04:20:16;;;;;;;;;;;;;;;13.53;86.64;99878.28;5133625;28;19950;-75
2021/08/02 04:22:42;;;;;;;;;;;;;;;13.62;86.99;99867.91;5133282;28;20278;-75
2021/08/02 04:25:10;;;;;;;;;;;;;;;13.58;87.93;99869.13;5133122;28;19923;-75
2021/08/02 04:27:36;;;;;;;;;;;;;;;13.64;87.90;99867.78;5133636;28;19930;-75
2021/08/02 04:30:05;;;;;;;;;;;;;;;13.71;87.78;99871.56;5132969;28;19924;-76
2021/08/02 04:32:31;;;;;;;;;;;;;;;13.96;86.06;99877.38;5133201;28;20378;-76
2021/08/02 04:34:58;;;;;;;;;;;;;;;14.00;86.38;99878.78;5133254;28;19924;-75
2021/08/02 04:37:24;;;;;;;;;;;;;;;14.15;84.96;99875.72;5133561;28;19930;-75
2021/08/02 04:39:53;;;;;;;;;;;;;;;14.35;85.18;99878.44;5132972;28;19923;-76
2021/08/02 04:42:19;;;;;;;;;;;;;;;14.54;84.35;99881.19;5133100;28;20385;-76
2021/08/02 04:44:46;;;;;;;;;;;;;;;14.57;85.08;99874.88;5133113;28;19935;-74
2021/08/02 04:47:14;;;;;;;;;;;;;;;14.98;84.08;99876.53;5133069;28;19923;-75
2021/08/02 04:49:40;;;;;;;;;;;;;;;15.07;83.48;99879.28;5133038;28;19931;-78
2021/08/02 04:52:07;;;;;;;;;;;;;;;15.32;80.26;99870.94;5133000;28;20289;-79
2021/08/02 04:54:34;;;;;;;;;;;;;;;15.24;80.03;99878.66;5133245;28;19930;-77
2021/08/02 04:57:00;;;;;;;;;;;;;;;15.21;78.19;99878.91;5132750;28;19930;-79
2021/08/02 04:59:27;;;;;;;;;;;;;;;15.33;77.37;99883.06;5132971;28;20374;-78
2021/08/02 05:01:54;;;;;;;;;;;;;;;14.86;78.97;99885.44;5132222;28;20025;-79
2021/08/02 05:04:22;;;;;;;;;;;;;;;14.91;79.50;99896.34;5131688;28;19924;-79
2021/08/02 05:06:48;;;;;;;;;;;;;;;14.98;79.60;99889.63;5131524;28;19924;-79
2021/08/02 05:09:15;;;;;;;;;;;;;;;14.92;78.96;99897.16;5131865;28;19934;-79
2021/08/02 05:11:41;;;;;;;;;;;;;;;14.75;77.50;99894.22;5132045;28;19924;-79
2021/08/02 05:14:08;;;;;;;;;;;;;;;14.58;76.94;99893.03;5131489;28;19923;-79
2021/08/02 05:16:34;;;;;;;;;;;;;;;14.39;78.65;99898.16;5132234;28;20382;-79
2021/08/02 05:19:01;;;;;;;;;;;;;;;14.12;79.64;99904.75;5134789;27;19923;-79
2021/08/02 05:21:29;;;;;;;;;;;;;;;14.21;78.84;99910.19;5136459;27;19930;-79
2021/08/02 05:23:56;;;;;;;;;;;;;;;14.09;79.98;99912.03;5136605;27;19927;-79
2021/08/02 05:26:22;;;;;;;;;;;;;;;14.21;80.22;99910.19;5136602;27;19923;-79
2021/08/02 05:28:49;;;;;;;;;;;;;;;14.47;79.25;99906.19;5136023;27;20411;-79
2021/08/02 05:31:15;;;;;;;;;;;;;;;14.42;80.06;99911.00;5136574;27;19924;-79
2021/08/02 05:33:42;;;;;;;;;;;;;;;14.52;78.61;99914.47;5136465;27;19931;-79
2021/08/02 05:36:08;;;;;;;;;;;;;;;14.59;77.13;99910.44;5135943;27;20396;-79
2021/08/02 05:38:36;;;;;;;;;;;;;;;14.57;76.76;99917.56;5136502;27;19923;-79
2021/08/02 05:41:03;;;;;;;;;;;;;;;14.63;74.62;99923.25;5135778;27;19923;-79
2021/08/02 05:43:30;;;;;;;;;;;;;;;14.77;75.13;99928.13;5136036;27;20282;-79
2021/08/02 05:45:56;;;;;;;;;;;;;;;14.73;74.81;99924.13;5136130;27;19927;-79
2021/08/02 05:48:23;;;;;;;;;;;;;;;14.72;73.73;99938.16;5135920;27;20353;-79
2021/08/02 05:50:50;;;;;;;;;;;;;;;14.89;73.37;99941.97;5135702;27;19923;-79
2021/08/02 05:53:16;;;;;;;;;;;;;;;15.15;73.60;99945.75;5136151;27;19927;-79
2021/08/02 05:55:44;;;;;;;;;;;;;;;15.41;73.50;99942.66;5135916;27;20377;-79
2021/08/02 05:58:11;;;;;;;;;;;;;;;15.52;71.82;99946.97;5136700;27;19929;-79
2021/08/02 06:00:38;;;;;;;;;;;;;;;15.02;73.00;99951.25;5136005;27;19924;-79
2021/08/02 06:03:05;;;;;;;;;;;;;;;15.44;70.47;99945.03;5135346;27;19934;-79
2021/08/02 06:05:31;;;;;;;;;;;;;;;15.81;70.58;99944.41;5136011;27;19946;-79
2021/08/02 06:07:58;;;;;;;;;;;;;;;15.94;67.77;99950.19;5135752;27;19923;-79
2021/08/02 06:10:24;;;;;;;;;;;;;;;15.45;69.20;99947.50;5135460;27;19923;-79
2021/08/02 06:12:52;;;;;;;;;;;;;;;15.33;70.06;99950.38;5135601;27;19946;-79
2021/08/02 06:15:19;;;;;;;;;;;;;;;15.41;68.87;99955.75;5135728;27;19924;-79
2021/08/02 06:17:46;;;;;;;;;;;;;;;15.40;68.51;99964.59;5135234;27;19931;-79
2021/08/02 06:20:13;;;;;;;;;;;;;;;15.48;67.33;99964.75;5135667;27;19923;-79
2021/08/02 06:22:40;;;;;;;;;;;;;;;15.29;69.31;99954.25;5135430;27;19924;-79
2021/08/02 06:25:07;;;;;;;;;;;;;;;15.18;68.70;99961.25;5135556;27;19927;-79
2021/08/02 06:27:34;;;;;;;;;;;;;;;15.43;67.78;99956.47;5135916;27;19924;-78
2021/08/02 06:30:02;;;;;;;;;;;;;;;15.62;67.31;99958.31;5134759;27;19930;-79
2021/08/02 06:32:29;;;;;;;;;;;;;;;15.36;69.05;99961.44;5135017;27;19924;-79
2021/08/02 06:34:55;;;;;;;;;;;;;;;15.53;67.73;99962.56;5134967;27;19923;-79
2021/08/02 06:37:23;;;;;;;;;;;;;;;15.57;66.84;99950.84;5135340;27;19962;-79
2021/08/02 06:39:50;;;;;;;;;;;;;;;15.70;65.05;99950.63;5135003;27;19923;-79
2021/08/02 06:42:16;;;;;;;;;;;;;;;16.02;65.51;99952.94;5134885;27;19924;-79
2021/08/02 06:44:43;;;;;;;;;;;;;;;16.10;66.31;99945.19;5134899;27;20297;-79
2021/08/02 06:47:12;;;;;;;;;;;;;;;15.97;64.48;99959.59;5135261;27;19929;-79
2021/08/02 06:49:38;;;;;;;;;;;;;;;15.63;65.93;99960.78;5135006;27;19924;-79
2021/08/02 06:52:05;;;;;;;;;;;;;;;15.73;64.14;99952.97;5134847;27;19940;-78
2021/08/02 06:54:32;;;;;;;;;;;;;;;15.94;64.10;99957.25;5134906;27;19923;-79
2021/08/02 06:56:58;;;;;;;;;;;;;;;16.30;64.11;99960.94;5134720;27;19923;-78
2021/08/02 06:59:25;;;;;;;;;;;;;;;16.48;65.96;99964.50;5134524;27;19924;-79
2021/08/02 07:01:51;;;;;;;;;;;;;;;16.61;62.96;99963.38;5134238;27;20266;-78
2021/08/02 07:04:19;;;;;;;;;;;;;;;16.81;63.82;99964.19;5134246;27;19923;-79
2021/08/02 07:06:46;;;;;;;;;;;;;;;16.84;62.38;99969.97;5134184;27;19923;-79
2021/08/02 07:09:12;;;;;;;;;;;;;;;16.10;62.66;99971.44;5134447;27;20297;-78
2021/08/02 07:11:39;;;;;;;;;;;;;;;16.07;62.83;99974.34;5134306;27;19930;-78
2021/08/02 07:14:06;;;;;;;;;;;;;;;16.03;60.04;99969.50;5134261;27;19927;-78
2021/08/02 07:16:32;;;;;;;;;;;;;;;16.45;60.29;99969.22;5134319;27;19923;-78
2021/08/02 07:18:59;;;;;;;;;;;;;;;16.59;59.67;99975.81;5134521;27;19924;-78
2021/08/02 07:21:27;;;;;;;;;;;;;;;17.98;56.12;99991.50;5134442;27;19930;-79
2021/08/02 07:23:53;;;;;;;;;;;;;;;18.76;54.29;99990.78;5134174;27;19930;-78
2021/08/02 07:26:20;;;;;;;;;;;;;;;18.82;53.01;99976.97;5134138;27;19924;-79
2021/08/02 07:28:47;;;;;;;;;;;;;;;19.67;50.17;99992.00;5133804;27;20285;-78
2021/08/02 07:31:15;;;;;;;;;;;;;;;20.90;47.29;99971.66;5134198;27;19923;-79
2021/08/02 07:33:41;;;;;;;;;;;;;;;20.15;47.71;99985.94;5134204;27;19923;-79
2021/08/02 07:36:08;;;;;;;;;;;;;;;19.93;48.50;99992.69;5133593;27;19934;-79
2021/08/02 07:38:36;;;;;;;;;;;;;;;20.35;48.94;100004.94;5134193;27;19968;-79
2021/08/02 07:41:03;;;;;;;;;;;;;;;20.70;46.90;99999.47;5133018;27;19923;-78
2021/08/02 07:43:29;;;;;;;;;;;;;;;21.23;45.42;100001.44;5134081;27;19924;-78
2021/08/02 07:45:56;;;;;;;;;;;;;;;21.38;43.46;100001.59;5133543;27;19937;-78
2021/08/02 07:48:23;;;;;;;;;;;;;;;21.89;42.35;100003.78;5133684;27;20298;-79
2021/08/02 07:50:50;;;;;;;;;;;;;;;20.39;44.82;100005.41;5133785;27;19924;-79
2021/08/02 07:53:16;;;;;;;;;;;;;;;20.89;45.39;99999.09;5133705;27;20412;-79
2021/08/02 07:55:45;;;;;;;;;;;;;;;22.43;43.31;100014.31;5134103;27;19923;-78
2021/08/02 07:58:11;;;;;;;;;;;;;;;22.30;43.71;100011.41;5134241;27;19923;-78
2021/08/02 08:00:38;;;;;;;;;;;;;;;21.08;45.75;100017.19;5133725;27;20377;-79
2021/08/02 08:03:05;;;;;;;;;;;;;;;21.72;43.16;100019.75;5133289;27;19931;-78
2021/08/02 08:05:31;;;;;;;;;;;;;;;22.83;39.91;100020.22;5133724;27;19930;-79
2021/08/02 08:07:58;;;;;;;;;;;;;;;21.75;42.80;100023.88;5133263;27;19927;-78
2021/08/02 08:10:26;;;;;;;;;;;;;;;20.79;45.64;100017.78;5133490;27;19927;-78
2021/08/02 08:12:54;;;;;;;;;;;;;;;20.81;44.94;100023.72;5133144;27;20369;-79
2021/08/02 08:15:22;;;;;;;;;;;;;;;21.35;44.25;100033.66;5133310;28;19923;-79
2021/08/02 08:17:49;;;;;;;;;;;;;;;22.22;40.40;100025.59;5132983;28;19927;-79
2021/08/02 08:20:16;;;;;;;;;;;;;;;21.23;42.97;100037.66;5133359;28;20290;-78
2021/08/02 08:22:43;;;;;;;;;;;;;;;21.67;42.51;100039.81;5133584;28;19924;-78
2021/08/02 08:25:10;;;;;;;;;;;;;;;21.92;39.99;100040.50;5133428;28;19924;-78
2021/08/02 08:27:37;;;;;;;;;;;;;;;22.22;41.09;100045.94;5133254;28;20304;-78
2021/08/02 08:30:07;;;;;;;;;;;;;;;24.57;39.37;100041.63;5133087;28;19931;-78
2021/08/02 08:32:33;;;;;;;;;;;;;;;26.29;33.62;100042.41;5133202;28;20296;-79
2021/08/02 08:35:00;;;;;;;;;;;;;;;26.02;35.05;100040.72;5133135;28;19930;-79
2021/08/02 08:37:26;;;;;;;;;;;;;;;24.67;36.85;100039.47;5133224;28;20385;-79
2021/08/02 08:39:53;;;;;;;;;;;;;;;22.61;39.61;100035.19;5133292;28;19923;-78
2021/08/02 08:42:20;;;;;;;;;;;;;;;21.23;43.05;100035.84;5133554;28;19931;-78
2021/08/02 08:44:46;;;;;;;;;;;;;;;21.28;43.44;100035.31;5132889;28;19924;-78
2021/08/02 08:47:14;;;;;;;;;;;;;;;20.42;46.34;100034.97;5133285;28;19923;-79
2021/08/02 08:49:42;;;;;;;;;;;;;;;20.78;43.90;100029.38;5133501;28;19923;-79
2021/08/02 08:52:09;;;;;;;;;;;;;;;20.17;47.29;100036.78;5132904;27;19927;-78
2021/08/02 08:54:36;;;;;;;;;;;;;;;20.40;47.22;100034.31;5136410;27;19923;-78
2021/08/02 08:57:02;;;;;;;;;;;;;;;19.75;46.29;100035.06;5136654;27;19923;-78
2021/08/02 08:59:30;;;;;;;;;;;;;;;20.06;45.51;100041.53;5136998;27;20266;-79
2021/08/02 09:02:01;;;;;;;;;;;;;;;20.37;47.25;100037.31;5136936;27;19946;-79
2021/08/02 09:04:29;;;;;;;;;;;;;;;19.69;47.51;100048.91;5136758;27;19923;-78
2021/08/02 09:06:58;;;;;;;;;;;;;;;21.58;43.89;100038.19;5136702;27;19924;-78
2021/08/02 09:09:27;;;;;;;;;;;;;;;21.60;42.78;100042.31;5136811;27;19924;-79
2021/08/02 09:12:03;;;;;;;;;;;;;;;20.91;44.94;100043.84;5136957;27;20377;-76
2021/08/02 09:14:29;;;;;;;;;;;;;;;21.49;42.58;100053.28;5136960;27;19923;-78
2021/08/02 09:16:57;;;;;;;;;;;;;;;22.23;40.28;100055.56;5136565;27;19923;-78
2021/08/02 09:19:24;;;;;;;;;;;;;;;20.98;40.58;100050.94;5136623;27;20400;-78
2021/08/02 09:21:54;;;;;;;;;;;;;;;20.59;43.29;100049.03;5136636;27;19953;-78
2021/08/02 09:24:28;;;;;;;;;;;;;;;20.40;44.94;100055.44;5136778;27;20014;-79
2021/08/02 09:26:55;;;;;;;;;;;;;;;19.54;46.94;100051.28;5136578;27;19930;-79
2021/08/02 09:29:27;;;;;;;;;;;;;;;19.39;47.34;100059.97;5136498;27;19930;-78
2021/08/02 09:31:53;;;;;;;;;;;;;;;18.25;49.65;100059.00;5136158;27;20289;-78
2021/08/02 09:34:22;;;;;;;;;;;;;;;18.59;49.33;100060.94;5136508;27;19923;-78
2021/08/02 09:36:54;;;;;;;;;;;;;;;17.99;49.39;100058.94;5136262;27;20025;-78
2021/08/02 09:39:23;;;;;;;;;;;;;;;18.17;49.75;100066.03;5136581;27;19930;-78
2021/08/02 09:41:49;;;;;;;;;;;;;;;18.17;50.32;100066.03;5135936;27;20392;-78
2021/08/02 09:44:20;;;;;;;;;;;;;;;18.13;49.73;100072.56;5136028;27;19969;-78
2021/08/02 09:46:54;;;;;;;;;;;;;;;18.55;47.35;100074.56;5135807;27;20300;-78
2021/08/02 09:49:20;;;;;;;;;;;;;;;18.92;48.40;100079.66;5136004;27;19935;-78
2021/08/02 09:51:47;;;;;;;;;;;;;;;18.62;49.39;100072.97;5135742;27;19924;-78
2021/08/02 09:54:23;;;;;;;;;;;;;;;18.80;49.30;100079.06;5136055;27;19924;-78
2021/08/02 09:56:51;;;;;;;;;;;;;;;18.56;49.41;100069.16;5135620;27;19924;-78
2021/08/02 09:59:17;;;;;;;;;;;;;;;18.22;51.08;100076.94;5136136;27;19969;-78
2021/08/02 10:01:44;;;;;;;;;;;;;;;18.39;51.56;100078.72;5136069;27;19923;-79
2021/08/02 10:04:11;;;;;;;;;;;;;;;17.96;52.29;100080.28;5134975;27;19924;-79
2021/08/02 10:06:37;;;;;;;;;;;;;;;18.69;49.92;100082.75;5135818;27;19927;-79
2021/08/02 10:09:04;;;;;;;;;;;;;;;19.45;47.48;100072.53;5135346;27;20420;-78
2021/08/02 10:11:33;;;;;;;;;;;;;;;18.98;49.44;100073.75;5135601;27;20377;-78
2021/08/02 10:13:59;;;;;;;;;;;;;;;19.73;49.32;100084.56;5135490;27;19971;-78
2021/08/02 10:16:28;;;;;;;;;;;;;;;20.71;45.75;100078.59;5135444;27;19923;-78
2021/08/02 10:19:01;;;;;;;;;;;;;;;20.47;46.97;100082.03;5136593;27;19923;-77
2021/08/02 10:21:36;;;;;;;;;;;;;;;20.60;45.10;100077.13;5136203;27;19930;-78
2021/08/02 10:24:05;;;;;;;;;;;;;;;20.40;46.04;100075.78;5136437;27;19930;-78
2021/08/02 10:26:33;;;;;;;;;;;;;;;20.04;45.80;100070.78;5135319;27;20274;-78
2021/08/02 10:29:02;;;;;;;;;;;;;;;19.32;47.50;100070.34;5134987;27;20305;-78
2021/08/02 10:31:29;;;;;;;;;;;;;;;18.81;47.81;100075.47;5135160;27;19930;-78
2021/08/02 10:33:56;;;;;;;;;;;;;;;19.00;47.39;100066.53;5134820;27;19924;-79
2021/08/02 10:36:23;;;;;;;;;;;;;;;19.54;46.15;100068.94;5135258;27;19980;-79
2021/08/02 10:38:51;;;;;;;;;;;;;;;19.78;46.11;100076.97;5134997;27;20326;-79
2021/08/02 10:41:25;;;;;;;;;;;;;;;21.00;43.79;100064.84;5135064;27;20377;-78
2021/08/02 10:43:53;;;;;;;;;;;;;;;20.00;45.81;100074.72;5134679;27;19997;-79
2021/08/02 10:46:21;;;;;;;;;;;;;;;20.29;46.39;100078.72;5135406;27;19950;-79
2021/08/02 10:48:48;;;;;;;;;;;;;;;20.10;47.49;100080.69;5134608;27;20288;-79
2021/08/02 10:51:15;;;;;;;;;;;;;;;19.69;47.81;100085.03;5134910;27;19923;-79
2021/08/02 10:53:42;;;;;;;;;;;;;;;19.70;47.91;100082.22;5135171;27;19924;-78
2021/08/02 10:56:09;;;;;;;;;;;;;;;18.95;50.72;100084.63;5134368;27;19930;-78
2021/08/02 10:58:39;;;;;;;;;;;;;;;18.81;50.62;100085.19;5134905;27;19923;-79
2021/08/02 11:01:11;;;;;;;;;;;;;;;18.68;50.29;100088.19;5134414;27;19934;-78
2021/08/02 11:03:38;;;;;;;;;;;;;;;17.86;52.36;100084.78;5134464;27;19931;-78
2021/08/02 11:06:06;;;;;;;;;;;;;;;18.09;49.60;100082.56;5133939;27;19927;-78
2021/08/02 11:08:35;;;;;;;;;;;;;;;18.15;48.88;100087.22;5134803;27;19923;-78
2021/08/02 11:11:05;;;;;;;;;;;;;;;17.90;50.83;100085.31;5133407;27;21266;-78
2021/08/02 11:13:32;;;;;;;;;;;;;;;18.06;53.20;100086.31;5134573;27;19930;-78
2021/08/02 11:15:58;;;;;;;;;;;;;;;18.17;51.26;100085.28;5133068;27;19924;-78
2021/08/02 11:18:27;;;;;;;;;;;;;;;17.94;50.16;100090.13;5134341;27;19931;-79
2021/08/02 11:20:54;;;;;;;;;;;;;;;18.05;51.21;100086.47;5134259;27;19923;-79
2021/08/02 11:23:30;;;;;;;;;;;;;;;17.96;51.85;100087.38;5134281;27;19927;-78
2021/08/02 11:26:04;;;;;;;;;;;;;;;18.31;50.75;100077.81;5134273;27;20320;-78
2021/08/02 11:28:37;;;;;;;;;;;;;;;18.41;50.45;100071.50;5134029;27;19930;-78
2021/08/02 11:31:03;;;;;;;;;;;;;;;18.39;50.74;100083.16;5134191;27;19923;-78
2021/08/02 11:33:33;;;;;;;;;;;;;;;18.83;50.34;100088.47;5133939;27;20297;-78
2021/08/02 11:35:59;;;;;;;;;;;;;;;19.68;46.84;100086.84;5133925;27;19923;-78
2021/08/02 11:38:33;;;;;;;;;;;;;;;18.77;49.58;100089.09;5134114;27;19930;-78
2021/08/02 11:41:00;;;;;;;;;;;;;;;19.34;47.80;100095.56;5133965;27;19927;-78
2021/08/02 11:43:27;;;;;;;;;;;;;;;18.88;49.35;100089.69;5134119;27;19930;-78
2021/08/02 11:45:53;;;;;;;;;;;;;;;19.47;49.24;100089.88;5133584;27;19930;-78
2021/08/02 11:48:22;;;;;;;;;;;;;;;20.25;46.11;100101.19;5133902;27;19928;-79
2021/08/02 11:50:51;;;;;;;;;;;;;;;19.83;45.17;100099.41;5133736;27;19923;-78
2021/08/02 11:53:18;;;;;;;;;;;;;;;20.13;47.44;100100.66;5133638;27;20298;-78
2021/08/02 11:55:49;;;;;;;;;;;;;;;19.87;48.81;100103.41;5133876;27;19923;-79
2021/08/02 11:58:16;;;;;;;;;;;;;;;20.00;46.91;100101.13;5133555;27;20366;-79
2021/08/02 12:00:43;;;;;;;;;;;;;;;19.36;49.06;100113.88;5133957;27;19935;-79
2021/08/02 12:03:11;;;;;;;;;;;;;;;19.29;46.49;100107.56;5133486;27;19930;-78
2021/08/02 12:05:39;;;;;;;;;;;;;;;19.17;47.15;100100.91;5133040;27;19923;-79
2021/08/02 12:08:11;;;;;;;;;;;;;;;19.12;48.14;100098.75;5133062;27;20017;-79
2021/08/02 12:10:38;;;;;;;;;;;;;;;19.27;48.10;100101.63;5133716;27;19930;-79
2021/08/02 12:13:05;;;;;;;;;;;;;;;19.45;48.15;100096.28;5133179;27;20440;-79
2021/08/02 12:15:32;;;;;;;;;;;;;;;20.12;46.72;100096.38;5133232;28;19924;-79
2021/08/02 12:17:59;;;;;;;;;;;;;;;20.36;48.04;100098.22;5133710;28;19923;-79
2021/08/02 12:20:30;;;;;;;;;;;;;;;20.45;45.82;100098.06;5133345;28;19923;-79
2021/08/02 12:22:57;;;;;;;;;;;;;;;19.91;46.88;100102.06;5133312;28;19931;-79
2021/08/02 12:25:35;;;;;;;;;;;;;;;20.09;45.93;100094.88;5133451;28;19923;-79
2021/08/02 12:28:02;;;;;;;;;;;;;;;19.94;47.81;100091.22;5135581;27;19927;-79
2021/08/02 12:30:28;;;;;;;;;;;;;;;19.91;47.42;100086.22;5138159;27;19923;-77
2021/08/02 12:32:55;;;;;;;;;;;;;;;20.95;44.94;100085.66;5137602;27;20010;-77
2021/08/02 12:35:21;;;;;;;;;;;;;;;21.64;43.94;100087.81;5137278;27;19928;-77
2021/08/02 12:37:48;;;;;;;;;;;;;;;22.16;42.93;100081.88;5137351;27;19923;-77
2021/08/02 12:40:17;;;;;;;;;;;;;;;21.78;42.45;100088.88;5137585;27;19967;-77
2021/08/02 12:42:46;;;;;;;;;;;;;;;20.94;44.59;100099.88;5137572;27;19924;-77
2021/08/02 12:45:14;;;;;;;;;;;;;;;21.04;44.25;100099.69;5137539;27;19923;-78